createdAt,value
2019-05-03T00:02:28.478Z,64.20
2019-05-03T00:04:51.645Z,64.30
2019-05-03T00:07:12.412Z,64.50
2019-05-03T00:09:32.693Z,64.20
2019-05-03T00:11:53.013Z,64.10
2019-05-03T00:14:13.790Z,64.50
2019-05-03T00:16:35.858Z,64.70
2019-05-03T00:18:56.088Z,64.60
2019-05-03T00:21:16.411Z,62.70
2019-05-03T00:23:36.699Z,63.60
2019-05-03T00:25:57.153Z,64.10
2019-05-03T00:28:17.544Z,64.50
2019-05-03T00:30:37.873Z,64.70
2019-05-03T00:32:58.387Z,63.80
2019-05-03T00:35:36.542Z,62.70
2019-05-03T00:38:02.100Z,61.20
2019-05-03T00:40:27.048Z,60.80
2019-05-03T00:42:47.282Z,59.80
2019-05-03T00:45:08.444Z,60.40
2019-05-03T00:47:28.972Z,62.00
2019-05-03T00:49:49.267Z,63.00
2019-05-03T00:52:11.394Z,62.60
2019-05-03T00:54:31.724Z,61.90
2019-05-03T00:56:52.308Z,62.60
2019-05-03T00:59:12.849Z,64.00
2019-05-03T01:01:35.309Z,64.90
2019-05-03T01:03:55.137Z,66.10
2019-05-03T01:06:16.768Z,66.60
2019-05-03T01:08:36.799Z,68.50
2019-05-03T01:10:57.050Z,68.60
2019-05-03T01:13:17.339Z,70.20
2019-05-03T01:15:55.055Z,69.30
2019-05-03T01:18:16.904Z,69.40
2019-05-03T01:20:37.086Z,69.60
2019-05-03T01:23:02.093Z,69.00
2019-05-03T01:25:31.569Z,69.60
2019-05-03T01:27:44.512Z,70.90
2019-05-03T01:30:06.478Z,72.50
2019-05-03T01:32:28.891Z,74.00
2019-05-03T01:34:49.137Z,75.50
2019-05-03T01:37:09.104Z,76.10
2019-05-03T01:39:29.271Z,76.80
2019-05-03T01:41:49.301Z,78.10
2019-05-03T01:44:09.360Z,77.80
2019-05-03T01:46:31.502Z,77.20
2019-05-03T01:48:56.863Z,77.80
2019-05-03T01:51:34.991Z,78.30
2019-05-03T01:53:56.712Z,75.10
2019-05-03T01:56:17.525Z,77.00
2019-05-03T01:58:38.056Z,78.90
2019-05-03T02:01:16.062Z,79.20
2019-05-03T02:03:43.532Z,79.30
2019-05-03T02:06:03.979Z,78.70
2019-05-03T02:08:25.844Z,79.30
2019-05-03T02:10:46.398Z,79.00
2019-05-03T02:13:06.435Z,79.20
2019-05-03T02:15:26.671Z,80.30
2019-05-03T02:17:46.857Z,82.20
2019-05-03T02:20:07.632Z,82.90
2019-05-03T02:22:28.628Z,84.10
2019-05-03T02:24:48.879Z,85.00
2019-05-03T02:27:09.325Z,85.30
2019-05-03T02:29:29.849Z,85.10
2019-05-03T02:31:53.499Z,87.10
2019-05-03T02:34:16.020Z,87.90
2019-05-03T02:36:35.251Z,88.90
2019-05-03T02:38:55.135Z,89.40
2019-05-03T02:41:15.545Z,89.90
2019-05-03T02:43:46.516Z,89.70
2019-05-03T02:46:17.612Z,89.40
2019-05-03T02:48:39.479Z,90.10
2019-05-03T02:50:59.741Z,90.30
2019-05-03T02:53:20.258Z,90.40
2019-05-03T02:55:45.379Z,90.40
2019-05-03T02:58:05.838Z,90.20
2019-05-03T03:00:56.284Z,90.70
2019-05-03T03:03:17.048Z,90.80
2019-05-03T03:05:40.407Z,91.20
2019-05-03T03:08:05.730Z,91.30
2019-05-03T03:10:22.290Z,91.40
2019-05-03T03:12:46.429Z,91.50
2019-05-03T03:15:08.876Z,92.00
2019-05-03T03:17:32.403Z,91.70
2019-05-03T03:19:55.353Z,91.70
2019-05-03T03:22:17.944Z,92.10
2019-05-03T03:24:46.054Z,91.70
2019-05-03T03:27:08.562Z,91.60
2019-05-03T03:29:28.881Z,92.00
2019-05-03T03:31:57.985Z,92.30
2019-05-03T03:34:18.984Z,91.90
2019-05-03T03:36:59.428Z,92.00
2019-05-03T03:39:09.570Z,92.10
2019-05-03T03:41:31.030Z,91.90
2019-05-03T03:43:55.823Z,91.70
2019-05-03T03:46:16.955Z,92.00
2019-05-03T03:48:40.584Z,92.00
2019-05-03T03:51:01.118Z,91.70
2019-05-03T03:53:26.344Z,91.70
2019-05-03T03:55:49.710Z,91.60
2019-05-03T03:58:09.003Z,91.50
2019-05-03T04:00:28.805Z,91.60
2019-05-03T04:02:51.821Z,91.90
2019-05-03T04:05:11.975Z,91.80
2019-05-03T04:07:32.198Z,91.40
2019-05-03T04:09:52.433Z,90.90
2019-05-03T04:12:12.972Z,91.60
2019-05-03T04:14:36.167Z,91.50
2019-05-03T04:16:58.770Z,90.70
2019-05-03T04:19:21.102Z,90.10
2019-05-03T04:21:45.329Z,90.80
2019-05-03T04:24:06.160Z,91.20
2019-05-03T04:26:29.799Z,90.70
2019-05-03T04:28:49.266Z,90.60
2019-05-03T04:31:09.517Z,90.40
2019-05-03T04:33:29.822Z,90.90
2019-05-03T04:35:50.294Z,91.10
2019-05-03T04:38:16.275Z,91.20
2019-05-03T04:40:36.729Z,90.90
2019-05-03T04:42:57.150Z,91.00
2019-05-03T04:45:17.583Z,90.90
2019-05-03T04:47:37.846Z,91.10
2019-05-03T04:49:58.049Z,91.10
2019-05-03T04:52:18.515Z,90.90
2019-05-03T04:54:40.124Z,90.90
2019-05-03T04:57:00.425Z,91.00
2019-05-03T04:59:20.948Z,90.60
2019-05-03T05:01:40.949Z,90.50
2019-05-03T05:04:00.912Z,90.50
2019-05-03T05:06:20.867Z,90.50
2019-05-03T05:08:41.122Z,90.60
2019-05-03T05:11:01.388Z,90.70
2019-05-03T05:13:21.600Z,90.80
2019-05-03T05:15:41.960Z,90.90
2019-05-03T05:18:12.876Z,91.10
2019-05-03T05:20:46.609Z,91.10
2019-05-03T05:23:06.907Z,91.20
2019-05-03T05:25:28.863Z,90.80
2019-05-03T05:28:04.621Z,90.50
2019-05-03T05:30:25.210Z,90.60
2019-05-03T05:32:45.517Z,90.70
2019-05-03T05:35:06.507Z,90.80
2019-05-03T05:37:26.684Z,90.30
2019-05-03T05:39:46.949Z,90.50
2019-05-03T05:42:07.233Z,90.50
2019-05-03T05:44:27.476Z,90.20
2019-05-03T05:47:04.724Z,90.10
2019-05-03T05:49:44.460Z,90.00
2019-05-03T05:52:05.667Z,90.10
2019-05-03T05:54:26.817Z,89.20
2019-05-03T05:56:48.700Z,89.40
2019-05-03T05:59:14.843Z,89.60
2019-05-03T06:01:36.825Z,89.10
2019-05-03T06:03:58.593Z,89.50
2019-05-03T06:06:20.617Z,89.10
2019-05-03T06:08:44.666Z,89.50
2019-05-03T06:11:19.452Z,89.80
2019-05-03T06:13:44.486Z,89.40
2019-05-03T06:16:09.208Z,90.10
2019-05-03T06:18:37.133Z,90.50
2019-05-03T06:21:10.938Z,90.30
2019-05-03T06:23:45.171Z,90.90
2019-05-03T06:26:22.829Z,90.60
2019-05-03T06:28:54.565Z,90.30
2019-05-03T06:31:22.826Z,90.10
2019-05-03T06:33:42.742Z,90.00
2019-05-03T06:36:02.681Z,89.60
2019-05-03T06:38:24.428Z,90.10
2019-05-03T06:40:45.585Z,90.30
2019-05-03T06:43:11.178Z,90.50
2019-05-03T06:45:28.344Z,90.50
2019-05-03T06:47:50.053Z,90.90
2019-05-03T06:50:10.870Z,91.30
2019-05-03T06:52:31.365Z,91.30
2019-05-03T06:54:51.635Z,91.40
2019-05-03T06:57:14.794Z,91.60
2019-05-03T06:59:39.394Z,92.00
2019-05-03T07:02:01.259Z,92.00
2019-05-03T07:04:27.378Z,92.00
2019-05-03T07:07:05.111Z,92.20
2019-05-03T07:09:29.827Z,92.30
2019-05-03T07:11:50.065Z,91.80
2019-05-03T07:14:10.354Z,91.60
2019-05-03T07:16:30.514Z,91.70
2019-05-03T07:18:50.923Z,91.70
2019-05-03T07:21:12.051Z,91.70
2019-05-03T07:23:35.136Z,91.70
2019-05-03T07:25:56.550Z,92.30
2019-05-03T07:28:16.805Z,92.30
2019-05-03T07:30:37.161Z,92.90
2019-05-03T07:33:04.870Z,92.80
2019-05-03T07:35:25.949Z,92.70
2019-05-03T07:37:46.215Z,92.60
2019-05-03T07:40:07.813Z,92.60
2019-05-03T07:42:28.101Z,91.90
2019-05-03T07:44:48.282Z,92.10
2019-05-03T07:47:08.597Z,91.30
2019-05-03T07:49:28.938Z,90.80
2019-05-03T07:51:49.244Z,90.60
2019-05-03T07:54:09.570Z,90.60
2019-05-03T07:56:31.434Z,90.40
2019-05-03T07:58:59.890Z,90.00
2019-05-03T08:01:19.613Z,90.00
2019-05-03T08:03:39.864Z,88.80
2019-05-03T08:06:00.204Z,89.40
2019-05-03T08:08:20.624Z,89.30
2019-05-03T08:10:40.861Z,87.30
2019-05-03T08:13:01.181Z,85.40
2019-05-03T08:15:21.473Z,84.30
2019-05-03T08:17:41.721Z,84.10
2019-05-03T08:20:02.048Z,82.80
2019-05-03T08:22:25.317Z,81.90
2019-05-03T08:24:45.242Z,82.30
2019-05-03T08:27:05.597Z,81.90
2019-05-03T08:29:26.861Z,80.80
2019-05-03T08:31:48.890Z,81.50
2019-05-03T08:34:16.477Z,81.30
2019-05-03T08:36:54.815Z,81.10
2019-05-03T08:39:15.818Z,80.70
2019-05-03T08:41:37.771Z,80.30
2019-05-03T08:43:58.206Z,78.70
2019-05-03T08:46:18.513Z,78.90
2019-05-03T08:48:38.904Z,77.30
2019-05-03T08:50:59.183Z,77.10
2019-05-03T08:53:19.517Z,78.50
2019-05-03T08:55:40.973Z,77.50
2019-05-03T08:58:05.192Z,77.10
2019-05-03T09:00:27.376Z,76.10
2019-05-03T09:02:47.689Z,75.40
2019-05-03T09:05:08.092Z,74.70
2019-05-03T09:07:28.353Z,74.30
2019-05-03T09:09:50.247Z,75.20
2019-05-03T09:12:10.644Z,74.60
2019-05-03T09:14:41.420Z,72.60
2019-05-03T09:16:55.420Z,72.50
2019-05-03T09:19:17.440Z,70.00
2019-05-03T09:21:39.267Z,70.00
2019-05-03T09:23:59.496Z,69.40
2019-05-03T09:26:19.872Z,67.20
2019-05-03T09:28:40.238Z,66.50
2019-05-03T09:31:00.419Z,63.20
2019-05-03T09:33:21.053Z,61.90
2019-05-03T09:35:41.653Z,61.80
2019-05-03T09:38:02.317Z,60.90
2019-05-03T09:40:24.588Z,59.20
2019-05-03T09:42:45.558Z,58.20
2019-05-03T09:45:08.056Z,55.60
2019-05-03T09:47:30.336Z,57.00
2019-05-03T09:49:51.910Z,55.90
2019-05-03T09:52:12.610Z,54.90
2019-05-03T09:54:34.817Z,56.00
2019-05-03T09:56:59.086Z,56.30
2019-05-03T09:59:20.326Z,57.00
2019-05-03T10:01:40.341Z,57.60
2019-05-03T10:04:00.363Z,56.50
2019-05-03T10:06:20.635Z,56.40
2019-05-03T10:08:41.073Z,55.60
2019-05-03T10:11:10.260Z,57.00
2019-05-03T10:13:32.230Z,56.60
2019-05-03T10:15:54.783Z,56.20
2019-05-03T10:18:16.117Z,55.40
2019-05-03T10:20:36.474Z,56.10
2019-05-03T10:22:59.309Z,55.40
2019-05-03T10:25:19.879Z,54.10
2019-05-03T10:27:46.103Z,55.20
2019-05-03T10:30:12.539Z,55.00
2019-05-03T10:32:46.424Z,55.00
2019-05-03T10:35:12.013Z,55.20
2019-05-03T10:37:35.630Z,55.40
2019-05-03T10:39:57.858Z,56.20
2019-05-03T10:42:18.487Z,57.50
2019-05-03T10:44:39.543Z,56.40
2019-05-03T10:46:59.738Z,56.10
2019-05-03T10:49:20.384Z,55.50
2019-05-03T10:51:42.535Z,55.90
2019-05-03T10:54:05.089Z,56.20
2019-05-03T10:56:27.303Z,57.60
2019-05-03T10:58:55.963Z,57.60
2019-05-03T11:01:19.529Z,57.00
2019-05-03T11:03:40.023Z,56.70
2019-05-03T11:06:00.372Z,57.90
2019-05-03T11:08:21.731Z,57.30
2019-05-03T11:10:42.119Z,58.90
2019-05-03T11:13:02.430Z,60.00
2019-05-03T11:15:22.749Z,60.60
2019-05-03T11:17:42.973Z,61.20
2019-05-03T11:20:05.180Z,61.70
2019-05-03T11:22:25.420Z,62.00
2019-05-03T11:24:45.638Z,62.60
2019-05-03T11:27:07.784Z,62.40
2019-05-03T11:29:28.361Z,61.70
2019-05-03T11:32:10.573Z,62.00
2019-05-03T11:34:35.455Z,62.10
2019-05-03T11:37:14.525Z,62.50
2019-05-03T11:39:34.868Z,63.00
2019-05-03T11:41:56.901Z,63.40
2019-05-03T11:44:36.336Z,63.20
2019-05-03T11:46:56.614Z,64.60
2019-05-03T11:49:16.950Z,65.80
2019-05-03T11:51:37.286Z,68.10
2019-05-03T11:53:57.482Z,69.40
2019-05-03T11:56:17.677Z,71.60
2019-05-03T11:58:37.930Z,73.20
2019-05-03T12:01:14.900Z,76.30
2019-05-03T12:03:26.378Z,78.80
2019-05-03T12:05:51.372Z,82.10
2019-05-03T12:08:14.630Z,86.50
2019-05-03T12:10:50.140Z,87.90
2019-05-03T12:12:58.669Z,87.40
2019-05-03T12:15:19.445Z,88.30
2019-05-03T12:17:52.001Z,88.20
2019-05-03T12:20:07.331Z,89.20
2019-05-03T12:22:26.508Z,90.90
2019-05-03T12:24:50.178Z,91.60
2019-05-03T12:27:10.774Z,91.40
2019-05-03T12:29:30.763Z,92.70
2019-05-03T12:31:50.802Z,93.40
2019-05-03T12:34:10.779Z,93.90
2019-05-03T12:36:31.113Z,94.30
2019-05-03T12:38:51.361Z,94.50
2019-05-03T12:41:11.672Z,95.00
2019-05-03T12:43:31.904Z,93.40
2019-05-03T12:45:52.138Z,94.80
2019-05-03T12:48:12.400Z,95.60
2019-05-03T12:50:34.573Z,96.30
2019-05-03T12:52:55.384Z,96.90
2019-05-03T12:55:16.277Z,98.20
2019-05-03T12:57:36.609Z,98.40
2019-05-03T12:59:58.532Z,97.60
2019-05-03T13:02:24.829Z,97.90
2019-05-03T13:04:46.715Z,96.20
2019-05-03T13:07:25.087Z,96.40
2019-05-03T13:09:45.474Z,96.60
2019-05-03T13:12:08.635Z,95.80
2019-05-03T13:14:28.812Z,94.70
2019-05-03T13:16:49.075Z,94.90
2019-05-03T13:19:09.305Z,95.00
2019-05-03T13:21:29.630Z,95.00
2019-05-03T13:23:49.853Z,94.90
2019-05-03T13:26:10.167Z,94.30
2019-05-03T13:28:30.444Z,93.30
2019-05-03T13:30:50.692Z,94.40
2019-05-03T13:33:11.012Z,94.20
2019-05-03T13:35:31.314Z,93.70
2019-05-03T13:37:51.577Z,94.40
2019-05-03T13:40:12.907Z,93.60
2019-05-03T13:42:34.887Z,94.40
2019-05-03T13:44:56.737Z,94.50
2019-05-03T13:47:20.018Z,93.90
2019-05-03T13:49:40.275Z,95.00
2019-05-03T13:52:05.072Z,94.10
2019-05-03T13:54:25.533Z,94.90
2019-05-03T13:56:45.990Z,94.60
2019-05-03T13:59:18.441Z,94.00
2019-05-03T14:01:30.070Z,92.70
2019-05-03T14:03:50.329Z,92.90
2019-05-03T14:06:10.627Z,92.30
2019-05-03T14:08:30.921Z,93.60
2019-05-03T14:10:52.742Z,92.60
2019-05-03T14:13:13.511Z,91.30
2019-05-03T14:15:34.862Z,90.70
2019-05-03T14:17:55.274Z,90.20
2019-05-03T14:20:20.012Z,87.90
2019-05-03T14:22:42.012Z,89.70
2019-05-03T14:25:04.509Z,87.90
2019-05-03T14:27:25.392Z,86.80
2019-05-03T14:29:45.652Z,82.60
2019-05-03T14:32:06.019Z,82.60
2019-05-03T14:34:26.208Z,81.40
2019-05-03T14:36:46.436Z,78.40
2019-05-03T14:39:09.767Z,75.70
2019-05-03T14:41:28.706Z,72.70
2019-05-03T14:43:48.557Z,73.90
2019-05-03T14:46:09.784Z,72.10
2019-05-03T14:48:29.789Z,75.40
2019-05-03T14:50:49.773Z,78.30
2019-05-03T14:53:09.785Z,77.70
2019-05-03T14:55:46.649Z,77.40
2019-05-03T14:58:26.353Z,78.30
2019-05-03T15:00:48.184Z,78.40
2019-05-03T15:03:15.006Z,79.20
2019-05-03T15:05:35.553Z,78.90
2019-05-03T15:07:56.040Z,82.80
2019-05-03T15:10:19.422Z,83.70
2019-05-03T15:12:39.610Z,83.60
2019-05-03T15:14:59.964Z,83.90
2019-05-03T15:17:20.154Z,85.50
2019-05-03T15:19:40.439Z,84.60
2019-05-03T15:22:00.793Z,85.00
2019-05-03T15:24:22.482Z,84.60
2019-05-03T15:26:44.625Z,84.80
2019-05-03T15:29:04.944Z,85.40
2019-05-03T15:31:25.356Z,90.10
2019-05-03T15:33:45.604Z,91.80
2019-05-03T15:36:05.928Z,91.40
2019-05-03T15:38:26.390Z,91.60
2019-05-03T15:40:46.639Z,90.80
2019-05-03T15:43:08.528Z,93.10
2019-05-03T15:45:31.590Z,93.60
2019-05-03T15:48:09.448Z,92.60
2019-05-03T15:50:29.616Z,94.60
2019-05-03T15:52:49.562Z,96.20
2019-05-03T15:55:09.618Z,96.30
2019-05-03T15:57:29.597Z,96.30
2019-05-03T15:59:49.820Z,96.90
2019-05-03T16:02:10.370Z,96.60
2019-05-03T16:04:30.588Z,97.20
2019-05-03T16:06:50.904Z,95.70
2019-05-03T16:09:11.155Z,95.70
2019-05-03T16:11:31.870Z,95.50
2019-05-03T16:13:52.103Z,96.50
2019-05-03T16:16:15.242Z,96.30
2019-05-03T16:18:36.620Z,96.80
2019-05-03T16:20:59.718Z,96.70
2019-05-03T16:23:18.906Z,97.20
2019-05-03T16:25:38.799Z,96.90
2019-05-03T16:28:00.319Z,96.70
2019-05-03T16:30:29.724Z,96.10
2019-05-03T16:32:49.644Z,98.00
2019-05-03T16:35:10.128Z,99.90
2019-05-03T16:37:31.864Z,99.90
2019-05-03T16:39:52.307Z,99.90
2019-05-03T16:42:12.554Z,99.90
2019-05-03T16:44:32.759Z,99.90
2019-05-03T16:46:53.077Z,99.90
2019-05-03T16:49:15.738Z,99.90
2019-05-03T16:51:35.998Z,99.90
2019-05-03T16:53:56.243Z,99.90
2019-05-03T16:56:17.148Z,99.90
2019-05-03T16:58:37.541Z,99.90
2019-05-03T17:00:57.881Z,99.90
2019-05-03T17:03:21.323Z,99.90
2019-05-03T17:05:59.773Z,99.90
2019-05-03T17:08:30.615Z,99.90
2019-05-03T17:10:59.203Z,99.90
2019-05-03T17:13:19.721Z,99.90
2019-05-03T17:15:40.243Z,99.90
2019-05-03T17:18:04.423Z,99.90
2019-05-03T17:20:25.434Z,99.90
2019-05-03T17:22:45.744Z,99.90
2019-05-03T17:25:06.713Z,99.90
2019-05-03T17:27:27.528Z,99.90
2019-05-03T17:29:47.505Z,99.90
2019-05-03T17:32:07.804Z,99.90
2019-05-03T17:34:28.455Z,99.90
2019-05-03T17:36:48.443Z,99.90
2019-05-03T17:39:10.717Z,99.90
2019-05-03T17:41:34.623Z,99.90
2019-05-03T17:43:56.312Z,99.90
2019-05-03T17:46:16.981Z,99.90
2019-05-03T17:48:37.299Z,99.90
2019-05-03T17:50:57.941Z,99.90
2019-05-03T17:53:29.780Z,99.90
2019-05-03T17:56:05.408Z,99.90
2019-05-03T17:58:29.336Z,99.90
2019-05-03T18:01:08.519Z,99.90
2019-05-03T18:03:30.793Z,99.90
2019-05-03T18:05:52.430Z,99.90
2019-05-03T18:08:20.944Z,99.90
2019-05-03T18:10:43.068Z,99.90
2019-05-03T18:13:03.603Z,99.90
2019-05-03T18:15:25.110Z,99.90
2019-05-03T18:17:45.434Z,99.90
2019-05-03T18:20:06.456Z,99.90
2019-05-03T18:22:26.976Z,99.90
2019-05-03T18:24:47.636Z,99.90
2019-05-03T18:27:08.428Z,99.90
2019-05-03T18:29:30.725Z,99.90
2019-05-03T18:31:55.093Z,99.90
2019-05-03T18:34:19.931Z,99.90
2019-05-03T18:36:38.544Z,99.90
2019-05-03T18:38:58.785Z,99.90
2019-05-03T18:41:19.006Z,99.90
2019-05-03T18:43:56.158Z,99.90
2019-05-03T18:46:21.127Z,99.90
2019-05-03T18:48:41.575Z,99.90
2019-05-03T18:51:01.702Z,99.90
2019-05-03T18:53:25.178Z,99.90
2019-05-03T18:55:45.626Z,99.90
2019-05-03T18:58:05.876Z,99.90
2019-05-03T19:00:26.290Z,99.90
2019-05-03T19:02:46.809Z,99.90
2019-05-03T19:05:08.036Z,99.90
2019-05-03T19:07:34.653Z,99.90
2019-05-03T19:10:11.143Z,99.90
2019-05-03T19:12:35.677Z,99.90
2019-05-03T19:14:56.355Z,99.90
2019-05-03T19:17:24.868Z,99.90
2019-05-03T19:19:50.027Z,99.90
2019-05-03T19:22:10.013Z,99.90
2019-05-03T19:24:30.080Z,99.90
2019-05-03T19:26:50.745Z,99.90
2019-05-03T19:29:12.304Z,99.90
2019-05-03T19:31:33.003Z,99.90
2019-05-03T19:33:55.096Z,99.90
2019-05-03T19:36:15.769Z,99.90
2019-05-03T19:38:37.975Z,99.90
2019-05-03T19:40:58.272Z,99.90
2019-05-03T19:43:18.859Z,99.90
2019-05-03T19:45:39.467Z,99.90
2019-05-03T19:48:00.158Z,99.90
2019-05-03T19:50:20.212Z,99.90
2019-05-03T19:52:58.229Z,99.90
2019-05-03T19:55:18.458Z,99.90
2019-05-03T19:57:40.506Z,99.90
2019-05-03T20:00:00.718Z,99.90
2019-05-03T20:02:35.354Z,99.90
2019-05-03T20:05:06.158Z,99.90
2019-05-03T20:07:34.650Z,99.90
2019-05-03T20:09:55.545Z,99.90
2019-05-03T20:12:15.879Z,99.90
2019-05-03T20:14:36.419Z,99.90
2019-05-03T20:16:56.649Z,99.90
2019-05-03T20:19:20.925Z,99.90
2019-05-03T20:21:38.902Z,99.90
2019-05-03T20:23:59.134Z,99.90
2019-05-03T20:26:19.496Z,99.90
2019-05-03T20:28:40.105Z,99.90
2019-05-03T20:31:01.926Z,99.90
2019-05-03T20:33:24.868Z,99.90
2019-05-03T20:35:45.423Z,99.90
2019-05-03T20:38:05.663Z,99.90
2019-05-03T20:40:27.257Z,99.90
2019-05-03T20:42:49.017Z,99.90
2019-05-03T20:45:11.083Z,99.90
2019-05-03T20:47:34.740Z,99.90
2019-05-03T20:50:15.557Z,99.90
2019-05-03T20:52:36.130Z,99.90
2019-05-03T20:54:56.223Z,99.90
2019-05-03T20:57:16.692Z,99.90
2019-05-03T20:59:45.263Z,99.90
2019-05-03T21:01:59.349Z,99.90
2019-05-03T21:04:19.863Z,99.90
2019-05-03T21:06:40.399Z,99.90
2019-05-03T21:09:01.172Z,99.90
2019-05-03T21:11:25.058Z,99.90
2019-05-03T21:13:45.253Z,99.90
2019-05-03T21:16:07.556Z,99.90
2019-05-03T21:18:51.253Z,99.90
2019-05-03T21:21:14.765Z,99.90
2019-05-03T21:23:39.436Z,99.90
2019-05-03T21:26:13.359Z,99.90
2019-05-03T21:28:35.666Z,99.90
2019-05-03T21:30:56.164Z,99.90
2019-05-03T21:33:19.330Z,99.90
2019-05-03T21:35:45.218Z,99.90
2019-05-03T21:38:03.223Z,99.90
2019-05-03T21:40:24.414Z,99.90
2019-05-03T21:42:45.286Z,99.90
2019-05-03T21:45:06.832Z,99.90
2019-05-03T21:47:28.981Z,99.90
2019-05-03T21:49:51.247Z,99.90
2019-05-03T21:52:11.788Z,99.90
2019-05-03T21:54:34.611Z,99.90
2019-05-03T21:56:57.840Z,99.90
2019-05-03T21:59:16.928Z,99.90
2019-05-03T22:01:39.157Z,99.90
2019-05-03T22:03:59.399Z,99.90
2019-05-03T22:06:20.105Z,99.90
2019-05-03T22:08:40.716Z,99.90
2019-05-03T22:11:01.293Z,99.90
2019-05-03T22:13:21.844Z,99.90
2019-05-03T22:15:45.774Z,99.90
2019-05-03T22:18:15.213Z,99.90
2019-05-03T22:20:36.625Z,99.90
2019-05-03T22:23:05.850Z,99.90
2019-05-03T22:25:28.066Z,99.90
2019-05-03T22:27:48.600Z,99.90
2019-05-03T22:30:09.232Z,99.90
2019-05-03T22:32:30.074Z,99.90
2019-05-03T22:34:50.634Z,99.90
2019-05-03T22:37:11.201Z,99.90
2019-05-03T22:39:31.738Z,99.90
2019-05-03T22:41:52.184Z,99.90
2019-05-03T22:44:16.795Z,99.90
2019-05-03T22:46:34.789Z,99.90
2019-05-03T22:48:55.329Z,99.90
2019-05-03T22:51:15.846Z,99.90
2019-05-03T22:53:36.351Z,99.90
2019-05-03T22:55:56.897Z,99.90
2019-05-03T22:58:17.327Z,99.90
2019-05-03T23:00:39.504Z,99.90
2019-05-03T23:03:00.996Z,99.90
2019-05-03T23:05:21.448Z,99.90
2019-05-03T23:07:46.969Z,99.90
2019-05-03T23:10:08.118Z,99.90
2019-05-03T23:12:28.814Z,99.90
2019-05-03T23:14:52.477Z,99.90
2019-05-03T23:17:15.838Z,99.90
2019-05-03T23:19:36.620Z,99.90
2019-05-03T23:21:57.996Z,99.90
2019-05-03T23:24:18.690Z,99.90
2019-05-03T23:26:39.131Z,99.90
2019-05-03T23:28:59.722Z,99.90
2019-05-03T23:31:20.328Z,99.90
2019-05-03T23:33:40.971Z,99.90
2019-05-03T23:36:01.440Z,99.90
2019-05-03T23:38:24.623Z,99.90
2019-05-03T23:40:44.766Z,99.90
2019-05-03T23:43:05.409Z,99.90
2019-05-03T23:45:25.927Z,99.90
2019-05-03T23:47:49.077Z,99.90
2019-05-03T23:50:11.821Z,99.90
2019-05-03T23:52:35.265Z,99.90
2019-05-03T23:54:57.680Z,99.90
2019-05-03T23:57:18.235Z,99.90
2019-05-03T23:59:38.735Z,99.90
